createdAt,value
2022-09-04T00:03:14.613Z,9.15
2022-09-04T00:06:07.361Z,8.93
2022-09-04T00:09:06.913Z,9.05
2022-09-04T00:12:10.133Z,9.23
2022-09-04T00:17:57.972Z,8.65
2022-09-04T00:20:49.901Z,9.20
2022-09-04T00:23:44.542Z,8.70
2022-09-04T00:26:45.006Z,8.63
2022-09-04T00:29:54.183Z,9.35
2022-09-04T00:32:51.285Z,8.68
2022-09-04T00:35:40.521Z,8.23
2022-09-04T00:38:35.531Z,9.20
2022-09-04T00:41:30.781Z,9.20
2022-09-04T00:44:57.826Z,9.38
2022-09-04T00:47:50.920Z,9.88
2022-09-04T00:51:01.725Z,9.38
2022-09-04T00:53:49.969Z,9.77
2022-09-04T00:57:13.833Z,10.43
2022-09-04T01:00:18.203Z,10.43
2022-09-04T01:03:15.507Z,11.48
2022-09-04T01:06:04.349Z,10.95
2022-09-04T01:09:21.816Z,11.18
2022-09-04T01:12:22.184Z,12.15
2022-09-04T01:15:25.432Z,11.73
2022-09-04T01:19:02.568Z,11.55
2022-09-04T01:22:12.970Z,12.00
2022-09-04T01:25:29.138Z,11.40
2022-09-04T01:28:27.540Z,11.43
2022-09-04T01:31:25.228Z,11.60
2022-09-04T01:34:33.888Z,11.80
2022-09-04T01:37:49.747Z,12.55
2022-09-04T01:40:53.169Z,11.40
2022-09-04T01:43:39.502Z,11.07
2022-09-04T01:46:58.107Z,11.57
2022-09-04T01:49:53.339Z,10.98
2022-09-04T01:53:00.820Z,11.13
2022-09-04T01:56:03.851Z,11.73
2022-09-04T01:58:58.408Z,10.85
2022-09-04T02:01:52.983Z,11.00
2022-09-04T02:04:45.257Z,11.38
2022-09-04T02:07:55.943Z,11.35
2022-09-04T02:11:28.180Z,11.25
2022-09-04T02:14:13.858Z,11.07
2022-09-04T02:17:09.089Z,10.88
2022-09-04T02:20:03.665Z,10.75
2022-09-04T02:23:11.255Z,10.85
2022-09-04T02:26:22.468Z,10.25
2022-09-04T02:29:28.475Z,10.45
2022-09-04T02:32:29.334Z,10.50
2022-09-04T02:35:34.898Z,11.15
2022-09-04T02:38:51.602Z,9.80
2022-09-04T02:41:50.380Z,10.50
2022-09-04T02:45:04.665Z,10.35
2022-09-04T02:48:29.377Z,10.77
2022-09-04T02:51:52.419Z,10.98
2022-09-04T02:55:00.221Z,10.82
2022-09-04T02:58:11.685Z,10.77
2022-09-04T03:01:21.776Z,11.02
2022-09-04T03:04:22.241Z,10.68
2022-09-04T03:07:23.950Z,11.07
2022-09-04T03:10:18.498Z,10.55
2022-09-04T03:13:09.875Z,11.10
2022-09-04T03:16:12.465Z,10.57
2022-09-04T03:19:38.882Z,10.98
2022-09-04T03:22:30.379Z,10.43
2022-09-04T03:25:40.497Z,10.63
2022-09-04T03:28:31.142Z,9.82
2022-09-04T03:31:34.874Z,11.05
2022-09-04T03:34:26.130Z,10.80
2022-09-04T03:37:22.536Z,10.85
2022-09-04T03:40:10.300Z,10.10
2022-09-04T03:43:20.508Z,10.18
2022-09-04T03:46:17.585Z,9.85
2022-09-04T03:49:08.807Z,10.25
2022-09-04T03:52:52.483Z,10.40
2022-09-04T03:55:56.641Z,10.63
2022-09-04T03:59:02.647Z,10.30
2022-09-04T04:01:53.460Z,10.13
2022-09-04T04:04:52.079Z,10.50
2022-09-04T04:07:51.175Z,10.40
2022-09-04T04:11:15.644Z,10.38
2022-09-04T04:14:06.896Z,9.82
2022-09-04T04:16:55.906Z,9.88
2022-09-04T04:20:04.928Z,9.65
2022-09-04T04:23:04.706Z,9.38
2022-09-04T04:26:08.160Z,9.15
2022-09-04T04:29:25.328Z,8.32
2022-09-04T04:32:33.211Z,9.25
2022-09-04T04:35:28.005Z,8.10
2022-09-04T04:38:47.336Z,9.43
2022-09-04T04:42:05.117Z,8.52
2022-09-04T04:45:45.035Z,8.48
2022-09-04T04:49:04.693Z,7.93
2022-09-04T04:52:07.984Z,8.18
2022-09-04T04:55:11.472Z,8.05
2022-09-04T04:58:07.255Z,7.13
2022-09-04T05:00:55.819Z,7.20
2022-09-04T05:04:15.601Z,6.70
2022-09-04T05:07:19.071Z,6.72
2022-09-04T05:10:31.227Z,6.68
2022-09-04T05:13:16.186Z,6.22
2022-09-04T05:16:34.214Z,5.90
2022-09-04T05:19:43.395Z,6.13
2022-09-04T05:22:43.120Z,5.78
2022-09-04T05:25:50.582Z,5.97
2022-09-04T05:29:02.855Z,5.70
2022-09-04T05:31:53.249Z,5.57
2022-09-04T05:34:51.300Z,6.00
2022-09-04T05:38:06.787Z,5.63
2022-09-04T05:41:05.004Z,5.63
2022-09-04T05:44:08.845Z,5.75
2022-09-04T05:47:21.978Z,5.72
2022-09-04T05:50:31.810Z,6.25
2022-09-04T05:53:42.863Z,5.38
2022-09-04T05:56:28.070Z,5.57
2022-09-04T05:59:19.330Z,5.63
2022-09-04T06:02:26.330Z,5.45
2022-09-04T06:05:28.140Z,5.63
2022-09-04T06:08:38.278Z,5.60
2022-09-04T06:11:54.575Z,5.32
2022-09-04T06:14:55.532Z,5.00
2022-09-04T06:18:28.429Z,4.82
2022-09-04T06:21:31.869Z,5.05
2022-09-04T06:24:55.828Z,5.63
2022-09-04T06:27:50.048Z,5.25
2022-09-04T06:30:49.499Z,5.22
2022-09-04T06:34:00.385Z,5.72
2022-09-04T06:37:11.225Z,5.57
2022-09-04T06:39:59.480Z,5.40
2022-09-04T06:42:50.270Z,5.38
2022-09-04T06:46:04.130Z,5.10
2022-09-04T06:48:59.713Z,5.30
2022-09-04T06:51:59.684Z,5.40
2022-09-04T06:55:02.437Z,5.07
2022-09-04T07:00:55.165Z,5.80
2022-09-04T07:03:58.132Z,5.65
2022-09-04T07:06:43.254Z,4.57
2022-09-04T07:09:35.083Z,5.25
2022-09-04T07:12:37.995Z,5.90
2022-09-04T07:15:33.354Z,5.45
2022-09-04T07:18:48.054Z,5.57
2022-09-04T07:21:35.944Z,5.50
2022-09-04T07:24:39.338Z,6.03
2022-09-04T07:27:58.431Z,5.78
2022-09-04T07:31:08.510Z,5.63
2022-09-04T07:34:23.978Z,5.88
2022-09-04T07:37:08.991Z,5.90
2022-09-04T07:40:05.333Z,6.00
2022-09-04T07:43:12.739Z,5.95
2022-09-04T07:46:13.311Z,5.47
2022-09-04T07:49:26.602Z,5.80
2022-09-04T07:52:43.767Z,5.43
2022-09-04T07:55:40.609Z,5.57
2022-09-04T07:58:46.387Z,5.68
2022-09-04T08:01:40.336Z,6.07
2022-09-04T08:04:28.548Z,5.32
2022-09-04T08:08:03.220Z,4.75
2022-09-04T08:11:19.195Z,5.15
2022-09-04T08:14:07.627Z,4.82
2022-09-04T08:17:05.027Z,5.20
2022-09-04T08:20:12.188Z,4.97
2022-09-04T08:23:11.594Z,4.95
2022-09-04T08:26:14.086Z,5.18
2022-09-04T08:29:37.157Z,5.78
2022-09-04T08:32:47.186Z,5.45
2022-09-04T08:35:34.598Z,5.35
2022-09-04T08:38:25.915Z,5.57
2022-09-04T08:41:29.737Z,5.93
2022-09-04T08:44:36.639Z,6.15
2022-09-04T08:47:57.161Z,5.90
2022-09-04T08:50:51.104Z,6.50
2022-09-04T08:54:01.990Z,6.40
2022-09-04T08:56:47.857Z,6.80
2022-09-04T09:00:01.858Z,5.80
2022-09-04T09:02:56.134Z,5.80
2022-09-04T09:06:10.231Z,6.60
2022-09-04T09:09:14.408Z,5.80
2022-09-04T09:12:40.746Z,5.53
2022-09-04T09:15:45.243Z,5.07
2022-09-04T09:18:48.808Z,5.15
2022-09-04T09:21:48.789Z,5.10
2022-09-04T09:24:45.907Z,4.97
2022-09-04T09:27:58.751Z,3.88
2022-09-04T09:31:29.118Z,3.80
2022-09-04T09:34:44.524Z,3.70
2022-09-04T09:38:13.696Z,4.07
2022-09-04T09:41:52.842Z,4.47
2022-09-04T09:45:09.586Z,5.50
2022-09-04T09:48:13.420Z,5.82
2022-09-04T09:51:17.233Z,5.15
2022-09-04T09:54:16.148Z,5.07
2022-09-04T09:57:21.870Z,4.75
2022-09-04T10:00:22.293Z,4.57
2022-09-04T10:03:28.960Z,4.50
2022-09-04T10:06:38.975Z,4.82
2022-09-04T10:09:34.410Z,4.38
2022-09-04T10:12:46.139Z,4.35
2022-09-04T10:15:55.939Z,4.72
2022-09-04T10:18:56.574Z,5.10
2022-09-04T10:22:00.258Z,5.32
2022-09-04T10:25:23.585Z,5.18
2022-09-04T10:28:40.239Z,5.90
2022-09-04T10:31:57.784Z,5.40
2022-09-04T10:34:54.957Z,4.88
2022-09-04T10:38:13.920Z,5.72
2022-09-04T10:41:34.826Z,6.30
2022-09-04T10:44:42.486Z,6.78
2022-09-04T10:47:52.071Z,6.43
2022-09-04T10:51:07.699Z,5.97
2022-09-04T10:54:08.159Z,5.95
2022-09-04T10:57:09.249Z,6.47
2022-09-04T11:00:00.252Z,6.82
2022-09-04T11:03:15.874Z,7.13
2022-09-04T11:06:25.627Z,6.45
2022-09-04T11:09:19.614Z,5.95
2022-09-04T11:12:47.396Z,5.97
2022-09-04T11:15:47.041Z,6.00
2022-09-04T11:19:10.220Z,5.80
2022-09-04T11:22:36.592Z,5.72
2022-09-04T11:28:35.600Z,6.13
2022-09-04T11:31:53.239Z,5.60
2022-09-04T11:34:56.935Z,5.70
2022-09-04T11:38:13.516Z,5.47
2022-09-04T11:41:15.403Z,6.05
2022-09-04T11:44:27.885Z,5.45
2022-09-04T11:47:34.829Z,4.95
2022-09-04T11:50:37.650Z,4.55
2022-09-04T11:53:51.948Z,4.78
2022-09-04T11:57:12.938Z,4.63
2022-09-04T12:00:13.580Z,5.20
2022-09-04T12:03:13.942Z,5.05
2022-09-04T12:06:11.774Z,5.53
2022-09-04T12:09:28.044Z,4.97
2022-09-04T12:12:21.966Z,5.25
2022-09-04T12:15:40.650Z,5.22
2022-09-04T12:18:32.975Z,5.22
2022-09-04T12:21:24.882Z,5.00
2022-09-04T12:24:14.902Z,5.10
2022-09-04T12:27:24.841Z,4.75
2022-09-04T12:30:23.171Z,4.88
2022-09-04T12:33:27.864Z,4.80
2022-09-04T12:36:32.996Z,4.70
2022-09-04T12:40:08.684Z,4.47
2022-09-04T12:43:00.193Z,4.60
2022-09-04T12:45:58.439Z,4.88
2022-09-04T12:49:31.361Z,5.45
2022-09-04T12:52:38.902Z,4.75
2022-09-04T12:55:42.008Z,4.90
2022-09-04T12:58:59.148Z,4.80
2022-09-04T13:02:16.262Z,4.40
2022-09-04T13:05:14.083Z,4.20
2022-09-04T13:08:25.822Z,4.68
2022-09-04T13:11:33.175Z,4.47
2022-09-04T13:14:27.047Z,4.55
2022-09-04T13:17:42.862Z,4.35
2022-09-04T13:20:41.018Z,4.70
2022-09-04T13:23:37.179Z,4.50
2022-09-04T13:26:59.086Z,4.63
2022-09-04T13:30:20.237Z,4.90
2022-09-04T13:33:11.662Z,4.50
2022-09-04T13:36:18.623Z,4.80
2022-09-04T13:39:06.805Z,4.35
2022-09-04T13:42:19.418Z,4.30
2022-09-04T13:45:26.421Z,4.63
2022-09-04T13:48:18.100Z,4.32
2022-09-04T13:51:13.499Z,4.07
2022-09-04T13:57:15.115Z,4.20
2022-09-04T14:00:06.979Z,4.22
2022-09-04T14:03:00.268Z,3.97
2022-09-04T14:05:45.641Z,4.65
2022-09-04T14:08:34.288Z,4.35
2022-09-04T14:11:34.054Z,4.57
2022-09-04T14:14:32.763Z,4.45
2022-09-04T14:17:26.494Z,4.53
2022-09-04T14:20:22.620Z,4.53
2022-09-04T14:23:27.383Z,4.55
2022-09-04T14:26:18.888Z,4.43
2022-09-04T14:29:32.602Z,4.90
2022-09-04T14:32:34.548Z,4.80
2022-09-04T14:35:35.297Z,4.32
2022-09-04T14:38:29.751Z,4.85
2022-09-04T14:41:20.725Z,4.88
2022-09-04T14:44:53.808Z,4.43
2022-09-04T14:48:05.012Z,4.65
2022-09-04T14:50:53.129Z,4.45
2022-09-04T14:53:46.950Z,5.55
2022-09-04T14:56:44.590Z,4.20
2022-09-04T14:59:38.857Z,4.85
2022-09-04T15:02:48.997Z,5.40
2022-09-04T15:05:48.320Z,5.95
2022-09-04T15:08:40.845Z,5.43
2022-09-04T15:11:34.180Z,5.45
2022-09-04T15:14:32.400Z,5.88
2022-09-04T15:17:27.639Z,4.75
2022-09-04T15:20:22.148Z,5.28
2022-09-04T15:23:32.529Z,4.72
2022-09-04T15:26:25.524Z,5.03
2022-09-04T15:29:33.056Z,4.85
2022-09-04T15:32:25.622Z,4.75
2022-09-04T15:35:22.375Z,4.75
2022-09-04T15:38:20.462Z,4.57
2022-09-04T15:41:26.032Z,4.85
2022-09-04T15:44:33.662Z,4.75
2022-09-04T15:47:41.818Z,4.50
2022-09-04T15:50:32.045Z,4.57
2022-09-04T15:53:49.189Z,4.72
2022-09-04T15:56:53.194Z,4.72
2022-09-04T15:59:48.983Z,4.45
2022-09-04T16:02:53.917Z,4.30
2022-09-04T16:05:56.844Z,4.65
2022-09-04T16:08:54.407Z,4.13
2022-09-04T16:11:48.448Z,4.78
2022-09-04T16:14:48.183Z,4.53
2022-09-04T16:17:42.422Z,4.15
2022-09-04T16:20:52.299Z,5.03
2022-09-04T16:23:40.101Z,4.50
2022-09-04T16:26:32.774Z,4.68
2022-09-04T16:29:24.520Z,5.13
2022-09-04T16:32:19.654Z,4.85
2022-09-04T16:35:18.938Z,4.78
2022-09-04T16:38:25.648Z,5.38
2022-09-04T16:41:13.545Z,5.30
2022-09-04T16:44:14.279Z,5.22
2022-09-04T16:47:04.235Z,5.82
2022-09-04T16:49:58.940Z,5.25
2022-09-04T16:53:22.768Z,5.07
2022-09-04T16:56:40.201Z,4.72
2022-09-04T16:59:25.421Z,5.13
2022-09-04T17:02:23.172Z,5.18
2022-09-04T17:05:39.440Z,5.00
2022-09-04T17:08:42.807Z,5.60
2022-09-04T17:14:39.685Z,5.13
2022-09-04T17:17:31.430Z,6.38
2022-09-04T17:21:18.429Z,5.40
2022-09-04T17:28:57.159Z,5.55
2022-09-04T17:29:16.209Z,5.00
2022-09-04T17:30:28.898Z,5.25
2022-09-04T17:40:34.605Z,4.93
2022-09-04T17:40:47.149Z,4.85
2022-09-04T17:40:50.971Z,4.85
2022-09-04T17:43:41.352Z,5.07
2022-09-04T17:46:57.870Z,5.47
2022-09-04T17:49:47.658Z,5.43
2022-09-04T17:52:59.495Z,5.05
2022-09-04T17:55:47.289Z,5.50
2022-09-04T17:58:39.951Z,5.28
2022-09-04T18:01:33.122Z,5.95
2022-09-04T18:04:34.339Z,6.03
2022-09-04T18:08:10.051Z,5.65
2022-09-04T18:10:48.987Z,5.22
2022-09-04T18:13:51.556Z,6.30
2022-09-04T18:16:38.968Z,6.05
2022-09-04T18:22:59.375Z,5.88
2022-09-04T18:25:51.690Z,5.80
2022-09-04T18:28:47.311Z,5.68
2022-09-04T18:37:25.492Z,6.15
2022-09-04T18:37:27.099Z,6.18
2022-09-04T18:38:20.090Z,5.85
2022-09-04T18:49:00.336Z,6.07
2022-09-04T18:50:33.815Z,6.15
2022-09-04T18:50:34.794Z,5.88
2022-09-04T18:51:20.100Z,6.00
2022-09-04T18:54:11.723Z,6.40
2022-09-04T18:57:06.496Z,6.40
2022-09-04T19:00:09.513Z,6.30
2022-09-04T19:03:09.889Z,6.78
2022-09-04T19:06:04.726Z,7.60
2022-09-04T19:08:55.715Z,7.45
2022-09-04T19:12:07.644Z,7.13
2022-09-04T19:14:55.265Z,7.85
2022-09-04T19:17:42.033Z,7.93
2022-09-04T19:20:36.326Z,7.95
2022-09-04T19:23:53.052Z,8.25
2022-09-04T19:26:53.726Z,9.32
2022-09-04T19:30:18.857Z,7.97
2022-09-04T19:33:16.172Z,8.20
2022-09-04T19:36:08.827Z,8.32
2022-09-04T19:46:08.069Z,7.75
2022-09-04T19:46:16.093Z,7.93
2022-09-04T19:46:28.205Z,8.43
2022-09-04T19:52:30.384Z,8.80
2022-09-04T19:53:33.499Z,9.15
2022-09-04T19:55:45.932Z,8.70
2022-09-04T19:58:39.554Z,7.93
2022-09-04T20:01:49.912Z,9.30
2022-09-04T20:04:46.464Z,9.48
2022-09-04T20:07:46.801Z,10.18
2022-09-04T20:10:37.798Z,9.30
2022-09-04T20:13:48.219Z,9.38
2022-09-04T20:16:47.706Z,9.38
2022-09-04T20:19:40.856Z,9.07
2022-09-04T20:22:25.875Z,9.55
2022-09-04T20:25:16.739Z,9.98
2022-09-04T20:28:45.350Z,9.68
2022-09-04T20:31:44.682Z,10.25
2022-09-04T20:34:39.953Z,10.10
2022-09-04T20:37:31.285Z,10.60
2022-09-04T20:40:34.691Z,11.05
2022-09-04T20:52:42.317Z,10.60
2022-09-04T20:52:52.601Z,11.52
2022-09-04T20:53:06.168Z,11.10
2022-09-04T20:55:58.676Z,12.38
2022-09-04T21:03:14.434Z,12.85
2022-09-04T21:09:02.409Z,11.90
2022-09-04T21:12:05.265Z,12.95
2022-09-04T21:14:57.953Z,11.88
2022-09-04T21:18:18.881Z,11.88
2022-09-04T21:21:23.971Z,11.60
2022-09-04T21:24:41.440Z,11.65
2022-09-04T21:27:52.275Z,13.15
2022-09-04T21:30:52.716Z,12.60
2022-09-04T21:33:49.598Z,13.10
2022-09-04T21:36:59.111Z,14.15
2022-09-04T21:40:50.796Z,14.15
2022-09-04T21:44:11.369Z,13.95
2022-09-04T21:47:08.388Z,15.00
2022-09-04T21:50:09.232Z,14.55
2022-09-04T21:53:19.463Z,13.75
2022-09-04T22:01:14.050Z,14.85
2022-09-04T22:02:35.357Z,14.77
2022-09-04T22:03:21.223Z,15.93
2022-09-04T22:07:36.267Z,16.42
2022-09-04T22:13:32.584Z,16.80
2022-09-04T22:13:39.072Z,18.40
2022-09-04T22:16:36.074Z,17.98
2022-09-04T22:19:45.773Z,17.13
2022-09-04T22:22:55.263Z,15.27
2022-09-04T22:25:47.622Z,15.30
2022-09-04T22:28:35.766Z,16.52
2022-09-04T22:31:21.833Z,16.88
2022-09-04T22:34:39.150Z,16.80
2022-09-04T22:37:29.903Z,17.30
2022-09-04T22:40:32.224Z,17.10
2022-09-04T22:43:25.435Z,16.75
2022-09-04T22:46:49.810Z,17.15
2022-09-04T22:50:16.464Z,15.00
2022-09-04T22:53:27.261Z,14.38
2022-09-04T22:56:24.421Z,14.35
2022-09-04T22:59:33.539Z,14.35
2022-09-04T23:09:07.367Z,15.10
2022-09-04T23:13:51.608Z,14.57
2022-09-04T23:13:58.766Z,15.40
2022-09-04T23:16:28.662Z,15.60
2022-09-04T23:23:07.697Z,16.08
2022-09-04T23:26:38.230Z,14.52
2022-09-04T23:26:53.270Z,14.93
2022-09-04T23:29:34.666Z,14.88
2022-09-04T23:32:26.448Z,15.32
2022-09-04T23:35:15.778Z,14.20
2022-09-04T23:38:38.951Z,14.93
2022-09-04T23:41:33.160Z,14.93
2022-09-04T23:44:49.349Z,14.80
2022-09-04T23:47:53.590Z,15.38
2022-09-04T23:50:46.518Z,16.02
2022-09-04T23:53:44.146Z,15.43
2022-09-04T23:56:42.953Z,14.93
2022-09-04T23:59:55.733Z,14.25
